createdAt,value
2023-02-13T00:01:27.897Z,62.35
2023-02-13T00:03:56.065Z,62.12
2023-02-13T00:06:24.473Z,62.44
2023-02-13T00:08:54.159Z,62.03
2023-02-13T00:11:22.228Z,62.57
2023-02-13T00:13:50.328Z,62.53
2023-02-13T00:16:18.424Z,62.43
2023-02-13T00:18:46.533Z,62.00
2023-02-13T00:21:40.639Z,61.60
2023-02-13T00:24:11.697Z,61.42
2023-02-13T00:26:40.793Z,62.14
2023-02-13T00:29:09.091Z,62.36
2023-02-13T00:31:38.287Z,62.05
2023-02-13T00:34:06.496Z,62.85
2023-02-13T00:36:35.088Z,62.03
2023-02-13T00:39:03.256Z,61.58
2023-02-13T00:41:32.752Z,62.05
2023-02-13T00:44:00.830Z,62.40
2023-02-13T00:46:32.474Z,63.10
2023-02-13T00:49:00.596Z,62.18
2023-02-13T00:51:29.469Z,62.36
2023-02-13T00:53:59.716Z,62.31
2023-02-13T00:56:28.020Z,62.56
2023-02-13T00:58:57.375Z,62.15
2023-02-13T01:01:26.879Z,61.83
2023-02-13T01:03:55.137Z,61.48
2023-02-13T01:06:23.313Z,62.05
2023-02-13T01:08:51.456Z,62.48
2023-02-13T01:11:20.019Z,62.12
2023-02-13T01:13:48.134Z,62.06
2023-02-13T01:16:18.062Z,61.90
2023-02-13T01:18:47.251Z,61.83
2023-02-13T01:21:20.015Z,62.10
2023-02-13T01:23:48.496Z,61.80
2023-02-13T01:26:20.929Z,62.32
2023-02-13T01:28:55.092Z,62.41
2023-02-13T01:31:24.918Z,62.60
2023-02-13T01:33:53.339Z,61.97
2023-02-13T01:36:23.749Z,63.27
2023-02-13T01:38:55.263Z,62.57
2023-02-13T01:41:23.890Z,62.32
2023-02-13T01:43:54.770Z,62.25
2023-02-13T01:46:29.774Z,62.19
2023-02-13T01:49:05.770Z,62.54
2023-02-13T01:51:37.330Z,62.83
2023-02-13T01:54:10.572Z,63.14
2023-02-13T01:56:45.094Z,62.84
2023-02-13T01:59:18.141Z,62.79
2023-02-13T02:01:48.742Z,62.86
2023-02-13T02:04:22.514Z,63.08
2023-02-13T02:06:57.135Z,63.00
2023-02-13T02:09:35.175Z,63.49
2023-02-13T02:12:09.858Z,63.10
2023-02-13T02:14:42.134Z,62.73
2023-02-13T02:17:13.870Z,62.49
2023-02-13T02:19:51.038Z,62.16
2023-02-13T02:23:10.643Z,63.03
2023-02-13T02:26:10.867Z,62.86
2023-02-13T02:29:29.745Z,62.71
2023-02-13T02:32:32.707Z,62.00
2023-02-13T02:35:17.908Z,62.35
2023-02-13T02:38:06.294Z,62.72
2023-02-13T02:40:49.283Z,62.49
2023-02-13T02:43:34.851Z,61.84
2023-02-13T02:46:17.553Z,61.97
2023-02-13T02:49:12.863Z,61.69
2023-02-13T02:51:52.315Z,62.23
2023-02-13T02:54:48.761Z,62.13
2023-02-13T02:57:25.978Z,62.16
2023-02-13T03:00:18.039Z,62.37
2023-02-13T03:03:08.115Z,62.44
2023-02-13T03:06:00.254Z,62.40
2023-02-13T03:08:44.636Z,62.39
2023-02-13T03:11:29.593Z,62.72
2023-02-13T03:14:02.528Z,62.73
2023-02-13T03:16:48.378Z,62.91
2023-02-13T03:19:46.496Z,62.80
2023-02-13T03:22:31.093Z,62.54
2023-02-13T03:25:09.341Z,62.76
2023-02-13T03:28:04.427Z,62.76
2023-02-13T03:30:49.166Z,62.69
2023-02-13T03:33:32.087Z,62.38
2023-02-13T03:36:29.529Z,62.64
2023-02-13T03:39:05.740Z,62.64
2023-02-13T03:41:41.845Z,62.59
2023-02-13T03:44:19.327Z,63.11
2023-02-13T03:46:51.945Z,62.73
2023-02-13T03:49:43.558Z,62.60
2023-02-13T03:52:20.520Z,62.73
2023-02-13T03:55:11.800Z,62.39
2023-02-13T03:58:01.699Z,63.27
2023-02-13T04:00:37.148Z,62.70
2023-02-13T04:03:15.727Z,62.02
2023-02-13T04:05:48.864Z,62.50
2023-02-13T04:08:17.099Z,62.36
2023-02-13T04:10:54.336Z,63.53
2023-02-13T04:13:33.599Z,63.15
2023-02-13T04:16:10.651Z,62.89
2023-02-13T04:18:40.695Z,62.53
2023-02-13T04:21:09.558Z,63.10
2023-02-13T04:23:38.020Z,62.20
2023-02-13T04:26:16.782Z,62.10
2023-02-13T04:28:45.006Z,61.76
2023-02-13T04:31:13.187Z,62.20
2023-02-13T04:33:41.466Z,62.20
2023-02-13T04:36:09.973Z,61.85
2023-02-13T04:38:37.993Z,62.16
2023-02-13T04:41:07.421Z,62.26
2023-02-13T04:43:35.460Z,62.66
2023-02-13T04:46:03.545Z,62.66
2023-02-13T04:48:31.810Z,62.79
2023-02-13T04:51:00.142Z,62.60
2023-02-13T04:53:28.508Z,62.85
2023-02-13T04:55:56.673Z,62.54
2023-02-13T04:58:26.114Z,62.12
2023-02-13T05:00:54.181Z,62.16
2023-02-13T05:03:22.234Z,62.95
2023-02-13T05:05:50.763Z,62.38
2023-02-13T05:08:19.085Z,62.15
2023-02-13T05:10:47.212Z,61.38
2023-02-13T05:13:16.658Z,61.52
2023-02-13T05:15:47.068Z,61.30
2023-02-13T05:18:15.510Z,62.06
2023-02-13T05:20:43.539Z,61.61
2023-02-13T05:23:23.869Z,62.13
2023-02-13T05:25:52.336Z,61.85
2023-02-13T05:28:38.336Z,61.53
2023-02-13T05:31:07.918Z,61.10
2023-02-13T05:33:36.128Z,61.82
2023-02-13T05:36:04.634Z,61.12
2023-02-13T05:38:32.671Z,61.31
2023-02-13T05:41:01.378Z,60.82
2023-02-13T05:43:30.609Z,61.46
2023-02-13T05:46:11.011Z,61.32
2023-02-13T05:48:39.280Z,61.09
2023-02-13T05:51:07.604Z,61.62
2023-02-13T05:53:36.172Z,61.92
2023-02-13T05:56:06.417Z,62.34
2023-02-13T05:58:35.224Z,62.24
2023-02-13T06:01:03.875Z,62.53
2023-02-13T06:03:34.123Z,62.72
2023-02-13T06:06:02.480Z,62.17
2023-02-13T06:08:30.615Z,62.12
2023-02-13T06:10:59.153Z,62.00
2023-02-13T06:13:27.480Z,61.68
2023-02-13T06:15:55.797Z,61.56
2023-02-13T06:18:24.010Z,61.75
2023-02-13T06:20:53.499Z,62.17
2023-02-13T06:23:21.579Z,61.99
2023-02-13T06:25:49.585Z,61.60
2023-02-13T06:28:17.644Z,62.10
2023-02-13T06:30:45.736Z,61.93
2023-02-13T06:33:13.802Z,61.91
2023-02-13T06:35:41.959Z,61.82
2023-02-13T06:38:11.366Z,61.46
2023-02-13T06:40:39.386Z,62.10
2023-02-13T06:43:07.511Z,61.86
2023-02-13T06:45:35.558Z,62.53
2023-02-13T06:48:03.636Z,62.58
2023-02-13T06:50:31.707Z,62.06
2023-02-13T06:52:59.941Z,61.63
2023-02-13T06:55:29.542Z,62.08
2023-02-13T06:58:00.787Z,62.63
2023-02-13T07:00:28.902Z,62.53
2023-02-13T07:03:02.362Z,62.36
2023-02-13T07:05:30.711Z,62.44
2023-02-13T07:07:59.258Z,62.80
2023-02-13T07:10:28.701Z,62.11
2023-02-13T07:13:05.242Z,63.05
2023-02-13T07:15:34.861Z,62.61
2023-02-13T07:18:03.476Z,62.31
2023-02-13T07:20:31.821Z,63.38
2023-02-13T07:23:00.788Z,63.41
2023-02-13T07:25:30.708Z,63.50
2023-02-13T07:28:03.475Z,64.03
2023-02-13T07:30:32.148Z,64.16
2023-02-13T07:33:02.061Z,64.50
2023-02-13T07:35:30.163Z,64.79
2023-02-13T07:37:59.311Z,64.09
2023-02-13T07:40:29.230Z,64.44
2023-02-13T07:42:57.735Z,65.64
2023-02-13T07:45:25.873Z,64.63
2023-02-13T07:47:56.407Z,64.65
2023-02-13T07:50:25.022Z,65.34
2023-02-13T07:52:56.574Z,64.59
2023-02-13T07:55:24.798Z,64.50
2023-02-13T07:57:54.541Z,64.40
2023-02-13T08:00:23.882Z,64.88
2023-02-13T08:02:51.923Z,65.68
2023-02-13T08:05:19.971Z,66.13
2023-02-13T08:07:48.057Z,65.78
2023-02-13T08:10:33.697Z,65.53
2023-02-13T08:15:56.061Z,65.03
2023-02-13T08:18:24.376Z,64.16
2023-02-13T08:20:52.534Z,64.08
2023-02-13T08:23:20.665Z,63.67
2023-02-13T08:25:49.751Z,62.81
2023-02-13T08:28:19.304Z,63.89
2023-02-13T08:30:47.342Z,63.44
2023-02-13T08:33:15.425Z,63.04
2023-02-13T08:35:43.661Z,62.99
2023-02-13T08:38:11.859Z,62.33
2023-02-13T08:40:40.487Z,61.30
2023-02-13T08:43:08.595Z,62.32
2023-02-13T08:45:38.209Z,61.25
2023-02-13T08:48:07.552Z,61.46
2023-02-13T08:50:37.034Z,60.64
2023-02-13T08:53:05.792Z,60.83
2023-02-13T08:55:33.852Z,60.77
2023-02-13T08:58:02.676Z,61.23
2023-02-13T09:00:31.379Z,60.42
2023-02-13T09:03:05.068Z,61.04
2023-02-13T09:05:33.171Z,60.34
2023-02-13T09:08:03.615Z,60.39
2023-02-13T09:10:33.282Z,60.10
2023-02-13T09:13:02.150Z,59.46
2023-02-13T09:15:30.555Z,59.38
2023-02-13T09:17:58.808Z,59.15
2023-02-13T09:20:28.424Z,59.36
2023-02-13T09:22:57.735Z,59.91
2023-02-13T09:25:26.214Z,59.78
2023-02-13T09:27:54.335Z,59.33
2023-02-13T09:30:24.300Z,59.11
2023-02-13T09:32:53.325Z,58.64
2023-02-13T09:35:22.560Z,57.95
2023-02-13T09:37:52.063Z,57.36
2023-02-13T09:40:26.567Z,58.19
2023-02-13T09:43:02.283Z,58.59
2023-02-13T09:45:30.438Z,57.58
2023-02-13T09:47:59.032Z,57.49
2023-02-13T09:50:30.803Z,57.34
2023-02-13T09:53:01.171Z,56.87
2023-02-13T09:55:37.561Z,56.89
2023-02-13T09:58:19.125Z,56.35
2023-02-13T10:00:52.549Z,56.02
2023-02-13T10:03:29.323Z,55.61
2023-02-13T10:06:09.825Z,56.01
2023-02-13T10:08:58.120Z,55.90
2023-02-13T10:11:57.166Z,55.65
2023-02-13T10:14:32.595Z,56.11
2023-02-13T10:17:07.841Z,55.16
2023-02-13T10:20:06.169Z,55.74
2023-02-13T10:22:40.432Z,55.38
2023-02-13T10:25:18.984Z,55.87
2023-02-13T10:27:50.835Z,56.13
2023-02-13T10:30:25.451Z,55.73
2023-02-13T10:33:15.765Z,55.54
2023-02-13T10:35:49.208Z,56.28
2023-02-13T10:38:20.605Z,55.82
2023-02-13T10:41:26.651Z,55.79
2023-02-13T10:44:16.223Z,55.64
2023-02-13T10:46:56.948Z,54.92
2023-02-13T10:49:44.568Z,55.22
2023-02-13T10:52:27.825Z,55.37
2023-02-13T10:55:23.049Z,54.21
2023-02-13T10:58:16.582Z,54.23
2023-02-13T11:00:52.272Z,54.75
2023-02-13T11:03:23.786Z,55.15
2023-02-13T11:05:53.833Z,55.00
2023-02-13T11:08:25.228Z,54.64
2023-02-13T11:10:54.060Z,54.62
2023-02-13T11:13:26.043Z,53.37
2023-02-13T11:16:04.834Z,54.40
2023-02-13T11:18:36.144Z,53.51
2023-02-13T11:21:10.339Z,54.11
2023-02-13T11:23:43.851Z,53.88
2023-02-13T11:26:16.169Z,53.85
2023-02-13T11:28:55.169Z,53.29
2023-02-13T11:31:28.696Z,53.63
2023-02-13T11:33:59.245Z,53.52
2023-02-13T11:36:31.234Z,53.11
2023-02-13T11:39:02.581Z,52.58
2023-02-13T11:41:33.027Z,53.04
2023-02-13T11:44:04.711Z,52.89
2023-02-13T11:46:47.346Z,52.00
2023-02-13T11:49:20.685Z,52.89
2023-02-13T11:51:52.454Z,52.88
2023-02-13T11:54:32.699Z,52.22
2023-02-13T11:57:05.239Z,52.86
2023-02-13T11:59:42.614Z,53.05
2023-02-13T12:02:20.879Z,52.86
2023-02-13T12:04:52.377Z,52.99
2023-02-13T12:07:25.766Z,52.62
2023-02-13T12:10:02.486Z,52.55
2023-02-13T12:12:38.625Z,52.40
2023-02-13T12:15:19.467Z,52.42
2023-02-13T12:17:54.771Z,51.45
2023-02-13T12:20:22.993Z,52.13
2023-02-13T12:23:04.750Z,52.40
2023-02-13T12:25:51.179Z,52.23
2023-02-13T12:28:26.534Z,52.01
2023-02-13T12:31:25.807Z,51.66
2023-02-13T12:34:37.138Z,51.08
2023-02-13T12:37:25.754Z,51.39
2023-02-13T12:40:15.743Z,50.84
2023-02-13T12:42:56.753Z,51.18
2023-02-13T12:45:38.906Z,51.00
2023-02-13T12:48:30.589Z,52.20
2023-02-13T12:51:16.762Z,51.72
2023-02-13T12:54:16.505Z,51.83
2023-02-13T12:57:06.581Z,51.33
2023-02-13T12:59:55.341Z,51.33
2023-02-13T13:03:02.556Z,50.12
2023-02-13T13:06:10.480Z,50.23
2023-02-13T13:09:20.037Z,50.15
2023-02-13T13:12:15.080Z,49.87
2023-02-13T13:14:54.826Z,50.03
2023-02-13T13:17:39.635Z,49.60
2023-02-13T13:20:51.544Z,49.67
2023-02-13T13:23:25.120Z,50.03
2023-02-13T13:26:07.371Z,49.68
2023-02-13T13:28:40.271Z,49.64
2023-02-13T13:31:09.495Z,49.46
2023-02-13T13:33:42.573Z,49.82
2023-02-13T13:36:20.700Z,49.81
2023-02-13T13:39:01.862Z,50.37
2023-02-13T13:41:42.634Z,49.81
2023-02-13T13:44:42.078Z,49.99
2023-02-13T13:47:26.722Z,49.95
2023-02-13T13:49:56.846Z,49.80
2023-02-13T13:52:29.566Z,50.01
2023-02-13T13:55:00.679Z,49.68
2023-02-13T13:57:49.609Z,49.85
2023-02-13T14:00:30.618Z,49.67
2023-02-13T14:03:34.363Z,48.73
2023-02-13T14:06:07.362Z,49.19
2023-02-13T14:09:07.231Z,49.25
2023-02-13T14:11:41.923Z,49.11
2023-02-13T14:14:55.414Z,48.07
2023-02-13T14:17:55.809Z,48.01
2023-02-13T14:20:39.683Z,47.81
2023-02-13T14:23:17.669Z,48.14
2023-02-13T14:25:47.703Z,48.09
2023-02-13T14:28:25.794Z,48.28
2023-02-13T14:31:06.391Z,48.60
2023-02-13T14:33:34.969Z,49.52
2023-02-13T14:36:08.424Z,48.33
2023-02-13T14:38:37.465Z,47.45
2023-02-13T14:41:07.328Z,48.36
2023-02-13T14:43:40.338Z,49.21
2023-02-13T14:46:28.799Z,49.72
2023-02-13T14:49:02.302Z,50.74
2023-02-13T14:51:37.033Z,50.40
2023-02-13T14:54:15.767Z,50.15
2023-02-13T14:56:48.734Z,50.35
2023-02-13T14:59:20.683Z,50.51
2023-02-13T15:01:53.248Z,50.49
2023-02-13T15:04:31.176Z,50.08
2023-02-13T15:07:04.094Z,49.45
2023-02-13T15:09:38.940Z,48.62
2023-02-13T15:12:27.729Z,48.35
2023-02-13T15:14:55.948Z,48.61
2023-02-13T15:17:29.258Z,48.19
2023-02-13T15:20:04.656Z,48.38
2023-02-13T15:22:36.736Z,48.29
2023-02-13T15:25:06.965Z,48.66
2023-02-13T15:27:42.143Z,48.53
2023-02-13T15:30:21.997Z,48.40
2023-02-13T15:32:56.899Z,48.51
2023-02-13T15:35:28.613Z,48.52
2023-02-13T15:37:56.743Z,49.13
2023-02-13T15:40:29.250Z,49.31
2023-02-13T15:42:59.916Z,49.43
2023-02-13T15:45:30.883Z,49.07
2023-02-13T15:47:59.072Z,49.79
2023-02-13T15:50:32.094Z,49.28
2023-02-13T15:53:01.567Z,49.59
2023-02-13T15:55:33.258Z,49.54
2023-02-13T15:58:04.031Z,49.79
2023-02-13T16:00:34.912Z,49.87
2023-02-13T16:03:06.891Z,50.26
2023-02-13T16:05:41.378Z,49.90
2023-02-13T16:08:38.091Z,50.50
2023-02-13T16:11:27.964Z,50.37
2023-02-13T16:14:13.691Z,50.71
2023-02-13T16:16:51.294Z,50.88
2023-02-13T16:19:32.358Z,51.45
2023-02-13T16:22:16.617Z,51.29
2023-02-13T16:24:50.837Z,51.63
2023-02-13T16:27:22.201Z,51.71
2023-02-13T16:30:00.793Z,51.66
2023-02-13T16:32:32.459Z,51.62
2023-02-13T16:35:27.229Z,51.15
2023-02-13T16:38:00.420Z,51.10
2023-02-13T16:40:41.575Z,51.62
2023-02-13T16:43:42.179Z,52.38
2023-02-13T16:46:34.769Z,52.43
2023-02-13T16:49:20.389Z,52.13
2023-02-13T16:51:59.900Z,52.29
2023-02-13T16:54:35.501Z,52.62
2023-02-13T16:57:08.300Z,51.96
2023-02-13T16:59:52.268Z,52.33
2023-02-13T17:02:24.516Z,53.36
2023-02-13T17:04:55.861Z,53.73
2023-02-13T17:07:30.618Z,53.74
2023-02-13T17:10:02.455Z,54.09
2023-02-13T17:12:32.707Z,54.20
2023-02-13T17:15:01.362Z,54.86
2023-02-13T17:17:33.204Z,55.23
2023-02-13T17:20:02.306Z,54.86
2023-02-13T17:22:36.467Z,54.63
2023-02-13T17:25:08.396Z,54.27
2023-02-13T17:27:36.478Z,54.35
2023-02-13T17:30:06.018Z,54.97
2023-02-13T17:32:35.446Z,54.91
2023-02-13T17:35:03.514Z,54.94
2023-02-13T17:37:35.061Z,54.95
2023-02-13T17:40:03.221Z,54.67
2023-02-13T17:42:31.880Z,54.60
2023-02-13T17:45:00.395Z,54.88
2023-02-13T17:47:30.284Z,56.54
2023-02-13T17:50:09.278Z,56.39
2023-02-13T17:52:39.747Z,56.67
2023-02-13T17:55:17.206Z,56.69
2023-02-13T17:57:45.546Z,56.84
2023-02-13T18:00:14.889Z,56.84
2023-02-13T18:02:43.444Z,56.97
2023-02-13T18:05:12.983Z,56.69
2023-02-13T18:07:43.111Z,56.61
2023-02-13T18:10:15.882Z,56.33
2023-02-13T18:12:45.082Z,56.21
2023-02-13T18:15:13.751Z,56.60
2023-02-13T18:17:41.847Z,56.41
2023-02-13T18:20:14.957Z,56.55
2023-02-13T18:22:43.428Z,56.86
2023-02-13T18:25:12.796Z,56.93
2023-02-13T18:27:41.180Z,56.39
2023-02-13T18:30:13.136Z,57.20
2023-02-13T18:32:41.492Z,57.38
2023-02-13T18:35:09.938Z,57.57
2023-02-13T18:37:39.422Z,57.49
2023-02-13T18:40:09.694Z,57.71
2023-02-13T18:42:38.873Z,57.40
2023-02-13T18:45:07.891Z,58.26
2023-02-13T18:47:35.993Z,58.09
2023-02-13T18:50:04.657Z,57.97
2023-02-13T18:52:32.714Z,57.81
2023-02-13T18:55:02.228Z,57.25
2023-02-13T18:57:30.266Z,57.24
2023-02-13T18:59:58.273Z,57.21
2023-02-13T19:02:26.408Z,57.11
2023-02-13T19:04:54.512Z,57.03
2023-02-13T19:07:23.333Z,57.46
2023-02-13T19:09:51.321Z,57.60
2023-02-13T19:12:20.745Z,57.74
2023-02-13T19:14:48.725Z,57.43
2023-02-13T19:17:17.322Z,58.15
2023-02-13T19:19:46.416Z,57.67
2023-02-13T19:22:15.357Z,58.19
2023-02-13T19:24:43.452Z,57.33
2023-02-13T19:27:11.908Z,57.87
2023-02-13T19:29:41.314Z,57.69
2023-02-13T19:32:09.488Z,58.08
2023-02-13T19:34:40.553Z,58.48
2023-02-13T19:37:08.675Z,58.84
2023-02-13T19:39:41.752Z,58.79
2023-02-13T19:42:09.886Z,57.63
2023-02-13T19:44:37.957Z,58.22
2023-02-13T19:47:07.332Z,58.59
2023-02-13T19:49:35.820Z,57.92
2023-02-13T19:52:04.348Z,57.58
2023-02-13T19:54:32.551Z,58.66
2023-02-13T19:57:05.540Z,58.23
2023-02-13T19:59:33.656Z,58.56
2023-02-13T20:02:02.431Z,57.85
2023-02-13T20:04:36.630Z,58.22
2023-02-13T20:07:06.374Z,58.28
2023-02-13T20:09:35.209Z,58.17
2023-02-13T20:12:03.234Z,58.64
2023-02-13T20:14:31.282Z,57.84
2023-02-13T20:16:59.546Z,58.43
2023-02-13T20:19:27.789Z,58.28
2023-02-13T20:21:57.284Z,58.54
2023-02-13T20:24:25.291Z,58.39
2023-02-13T20:26:56.438Z,59.17
2023-02-13T20:29:24.586Z,59.64
2023-02-13T20:31:53.907Z,60.26
2023-02-13T20:34:22.079Z,60.27
2023-02-13T20:36:50.168Z,61.23
2023-02-13T20:39:19.690Z,60.44
2023-02-13T20:41:50.319Z,60.81
2023-02-13T20:44:20.921Z,60.06
2023-02-13T20:46:49.514Z,61.28
2023-02-13T20:49:21.719Z,61.43
2023-02-13T20:51:50.171Z,60.07
2023-02-13T20:54:20.438Z,60.65
2023-02-13T20:56:48.452Z,59.88
2023-02-13T20:59:16.510Z,60.10
2023-02-13T21:01:45.602Z,60.50
2023-02-13T21:04:18.926Z,60.34
2023-02-13T21:06:48.546Z,60.70
2023-02-13T21:09:17.090Z,60.35
2023-02-13T21:11:46.481Z,59.72
2023-02-13T21:14:15.460Z,59.87
2023-02-13T21:16:43.918Z,60.12
2023-02-13T21:19:17.204Z,60.60
2023-02-13T21:21:45.860Z,60.62
2023-02-13T21:24:16.383Z,60.51
2023-02-13T21:26:46.785Z,60.14
2023-02-13T21:29:15.127Z,59.13
2023-02-13T21:31:47.443Z,60.36
2023-02-13T21:34:17.733Z,59.81
2023-02-13T21:36:47.130Z,59.89
2023-02-13T21:39:15.939Z,60.18
2023-02-13T21:41:46.924Z,60.07
2023-02-13T21:44:16.624Z,60.43
2023-02-13T21:46:47.324Z,60.87
2023-02-13T21:49:18.186Z,60.93
2023-02-13T21:51:46.632Z,61.28
2023-02-13T21:54:15.270Z,61.09
2023-02-13T21:56:46.040Z,60.64
2023-02-13T21:59:16.380Z,60.69
2023-02-13T22:01:50.043Z,61.88
2023-02-13T22:04:19.257Z,61.07
2023-02-13T22:06:51.038Z,60.92
2023-02-13T22:09:21.163Z,60.52
2023-02-13T22:11:53.750Z,61.04
2023-02-13T22:14:22.468Z,61.06
2023-02-13T22:16:52.647Z,60.66
2023-02-13T22:19:21.213Z,60.93
2023-02-13T22:21:49.771Z,61.56
2023-02-13T22:24:17.908Z,61.76
2023-02-13T22:26:46.207Z,61.61
2023-02-13T22:29:18.461Z,61.54
2023-02-13T22:31:47.565Z,61.11
2023-02-13T22:34:15.793Z,61.69
2023-02-13T22:36:43.972Z,60.98
2023-02-13T22:39:12.958Z,60.78
2023-02-13T22:41:42.257Z,60.31
2023-02-13T22:44:10.312Z,60.89
2023-02-13T22:46:39.827Z,60.52
2023-02-13T22:49:08.012Z,60.87
2023-02-13T22:51:37.574Z,60.74
2023-02-13T22:54:06.547Z,60.62
2023-02-13T22:56:35.191Z,61.73
2023-02-13T22:59:03.482Z,61.95
2023-02-13T23:01:31.744Z,61.54
2023-02-13T23:04:01.485Z,61.15
2023-02-13T23:06:29.676Z,62.02
2023-02-13T23:08:58.286Z,61.59
2023-02-13T23:11:46.842Z,61.27
2023-02-13T23:14:16.370Z,61.97
2023-02-13T23:17:02.664Z,60.82
2023-02-13T23:19:32.480Z,60.50
2023-02-13T23:22:01.045Z,60.86
2023-02-13T23:24:30.314Z,60.52
2023-02-13T23:26:58.491Z,61.53
2023-02-13T23:29:27.109Z,61.43
2023-02-13T23:31:55.292Z,61.75
2023-02-13T23:34:23.667Z,60.45
2023-02-13T23:36:53.239Z,61.99
2023-02-13T23:39:21.498Z,61.80
2023-02-13T23:41:49.615Z,61.31
2023-02-13T23:44:17.726Z,62.17
2023-02-13T23:46:46.412Z,61.38
2023-02-13T23:49:14.658Z,61.82
2023-02-13T23:51:42.705Z,61.79
2023-02-13T23:54:16.587Z,61.08
2023-02-13T23:56:44.977Z,62.59
2023-02-13T23:59:13.549Z,61.39
